Date,TemperatureHighF,TemperatureAvgF,TemperatureLowF,DewpointHighF,DewpointAvgF,DewpointLowF,HumidityHigh,HumidityAvg,HumidityLow,PressureMaxIn,PressureMinIn,WindSpeedMaxMPH,WindSpeedAvgMPH,GustSpeedMaxMPH,PrecipitationSumIn
2013-1-1,-200.0,0.0,200.0,-99.9,-99.9,-99.9,0,0,100,30.00,29.83,4,1,6,0.00
2013-1-2,-200.0,0.0,200.0,-99.9,-99.9,-99.9,0,0,100,30.15,30.00,4,1,6,0.00
2013-1-3,-200.0,0.0,200.0,-99.9,-99.9,-99.9,0,0,100,30.18,30.06,3,1,4,0.00
2013-1-4,-200.0,0.0,200.0,-99.9,-99.9,-99.9,0,0,100,30.06,29.94,4,1,6,0.00
2013-1-5,-200.0,0.0,200.0,-99.9,-99.9,-99.9,0,0,100,30.27,30.00,5,1,6,0.00
2013-1-6,-200.0,0.0,200.0,-99.9,-99.9,-99.9,0,0,100,30.21,29.97,3,1,5,0.00
2013-1-7,-200.0,0.0,200.0,-99.9,-99.9,-99.9,0,0,100,30.39,30.03,4,1,6,0.00
2013-1-8,-200.0,0.0,200.0,-99.9,-99.9,-99.9,0,0,100,30.39,30.33,3,1,4,0.00
2013-1-9,-200.0,0.0,200.0,-99.9,-99.9,-99.9,0,0,100,30.39,30.12,4,-48,7,0.00
2013-1-10,-200.0,0.0,200.0,-99.9,-99.9,-99.9,0,0,100,30.50,30.21,4,2,8,0.00
2013-1-17,46.8,43.2,38.7,26.6,23.1,19.4,49,44,42,30.09,30.00,0,-999,0,0.00
2013-1-18,40.8,32.3,27.5,19.4,3.6,-16.6,47,33,10,30.45,30.00,3,-812,6,0.00
2013-1-19,54.3,42.1,31.5,26.6,21.1,8.6,53,43,33,30.39,29.91,4,3,10,0.00
2013-1-20,61.3,46.0,32.7,30.2,15.3,-11.2,53,33,6,30.03,29.68,3,1,5,0.00
2013-1-21,32.5,29.8,28.0,1.4,-6.4,-14.8,31,21,13,30.09,30.03,3,2,4,0.00
2013-1-27,-200.0,0.0,200.0,-99.9,-99.9,-99.9,0,0,100,30.50,30.45,4,1,6,0.00
2013-1-28,-200.0,0.0,200.0,-99.9,-99.9,-99.9,0,0,100,30.47,30.06,5,1,5,0.00
2013-2-4,-200.0,0.0,200.0,-99.9,-99.9,-99.9,0,0,100,29.97,29.91,3,1,6,0.00
2013-2-5,-200.0,0.0,200.0,-99.9,-99.9,-99.9,0,0,100,29.97,29.88,3,0,4,0.00
2013-2-6,-200.0,0.0,200.0,-99.9,-99.9,-99.9,0,0,100,30.33,29.91,4,1,6,0.00
2013-2-7,-200.0,0.0,200.0,-99.9,-99.9,-99.9,0,0,100,30.47,30.30,3,0,4,0.00
2013-2-8,-200.0,0.0,200.0,-99.9,-99.9,-99.9,0,0,100,30.30,29.62,2,1,4,0.00
2013-2-9,-200.0,0.0,200.0,-99.9,-99.9,-99.9,0,0,100,30.30,29.74,4,1,6,0.00
2013-2-10,-200.0,0.0,200.0,-99.9,-99.9,-99.9,0,0,100,30.45,30.30,4,1,4,0.00
2013-2-11,-200.0,0.0,200.0,-99.9,-99.9,-99.9,0,0,100,30.30,29.65,4,0,4,0.00
2013-2-12,-200.0,0.0,200.0,-99.9,-99.9,-99.9,0,0,100,29.94,29.71,3,1,4,0.00
2013-2-13,-200.0,0.0,200.0,-99.9,-99.9,-99.9,0,0,100,29.94,29.68,4,0,4,0.00
2013-2-14,-200.0,0.0,200.0,-99.9,-99.9,-99.9,0,0,100,30.00,29.71,4,1,5,0.00
2013-2-15,-200.0,0.0,200.0,-99.9,-99.9,-99.9,0,0,100,30.00,29.91,3,1,5,0.00
2013-2-16,-200.0,0.0,200.0,-99.9,-99.9,-99.9,0,0,100,29.94,29.74,3,1,5,0.00
2013-2-17,-200.0,0.0,200.0,-99.9,-99.9,-99.9,0,0,100,29.97,29.65,7,2,9,0.00
2013-2-18,-200.0,0.0,200.0,-99.9,-99.9,-99.9,0,0,100,30.24,29.97,6,-35,8,0.00
2013-2-19,-200.0,0.0,200.0,-99.9,-99.9,-99.9,0,0,100,30.18,29.68,4,1,6,0.00
2013-2-20,-200.0,0.0,200.0,-99.9,-99.9,-99.9,0,0,100,29.97,29.71,6,2,7,0.00
2013-2-21,-200.0,0.0,200.0,-99.9,-99.9,-99.9,0,0,100,30.27,29.97,6,2,8,0.00
2013-2-22,-200.0,0.0,200.0,-99.9,-99.9,-99.9,0,0,100,30.27,30.24,4,1,6,0.00
2013-4-22,61.5,58.0,53.6,32.0,27.7,-99.9,41,32,26,30.80,30.45,2,0,3,0.00
2013-4-23,61.2,61.2,61.2,26.6,26.6,26.6,26,26,26,30.45,30.09,2,0,3,0.00
2013-4-24,61.2,20.7,61.2,26.6,-57.2,-99.9,26,9,26,30.24,29.88,3,-71,4,0.00
2013-4-26,-200.0,0.0,200.0,-99.9,-99.9,-99.9,0,0,100,30.39,30.36,0,-999,0,0.00
2013-5-2,-200.0,0.0,200.0,-99.9,-99.9,-99.9,0,0,100,30.39,30.30,4,1,5,0.00
2013-5-3,-200.0,0.0,200.0,-99.9,-99.9,-99.9,0,0,100,30.56,30.33,5,0,6,0.00
2013-5-4,88.5,20.3,51.6,50.0,-53.3,-99.9,56,15,15,30.36,30.24,4,0,6,0.00
2013-5-5,71.6,55.8,48.9,42.8,37.1,33.8,59,50,34,30.30,30.21,5,0,6,0.00
2013-5-6,77.7,59.0,50.4,50.0,43.7,37.4,72,58,36,30.27,30.15,4,0,4,0.00
2013-5-7,80.8,65.5,55.2,57.2,50.6,44.6,82,59,41,30.15,30.06,3,0,3,0.00
2013-5-8,66.4,61.4,58.1,62.6,57.0,51.8,98,85,70,30.09,29.94,3,1,4,0.00
2013-5-9,76.1,62.9,57.2,60.8,54.9,48.2,96,77,43,30.03,29.88,2,1,3,0.00
2013-5-10,85.5,70.2,61.3,55.4,53.2,50.0,80,56,32,30.24,29.88,4,1,5,0.00
2013-5-11,73.4,66.1,63.5,64.4,61.3,53.6,92,84,58,29.94,29.68,6,1,6,0.00
2013-5-12,66.0,65.9,65.8,62.6,62.6,62.6,90,90,90,29.71,29.71,1,0,0,0.00
2013-5-15,75.4,64.9,60.1,53.6,45.2,37.4,60,49,39,29.97,29.71,5,2,6,0.00
2013-5-16,88.7,75.8,71.2,51.8,46.1,42.8,42,35,28,29.83,29.71,2,0,3,0.00
2013-5-17,85.3,70.4,62.1,42.8,29.6,-18.4,37,26,2,30.18,29.83,4,1,6,0.00
2013-5-18,67.6,63.9,60.8,51.8,44.3,33.8,68,50,28,30.27,30.18,4,0,5,0.00
2013-5-19,60.8,58.5,56.8,59.0,55.5,44.6,98,89,56,30.30,30.15,3,0,4,0.00
2013-5-20,86.9,68.1,59.2,64.4,61.0,59.0,98,81,42,30.15,29.94,4,0,6,0.00
2013-5-21,95.0,78.5,68.7,68.0,65.0,59.0,89,66,36,29.97,29.83,4,-5,6,0.00
2013-5-22,87.8,72.7,61.5,69.8,63.0,55.4,85,72,46,29.91,29.83,2,-14,4,0.00
2013-5-23,86.2,72.8,66.2,68.0,65.7,59.0,93,79,43,29.88,29.77,4,1,6,0.00
2013-5-24,68.5,59.3,48.0,64.4,52.9,37.4,92,79,59,29.91,29.65,4,1,6,0.00
2013-5-25,59.0,51.7,47.3,44.6,39.7,33.8,84,63,46,29.97,29.85,5,2,6,0.00
2013-5-26,78.1,60.7,49.5,37.4,22.1,-20.2,53,31,2,30.18,29.94,5,1,9,0.00
2013-5-27,84.4,67.4,56.1,35.6,17.3,-18.4,37,22,2,30.24,30.09,4,1,6,0.00
2013-5-28,71.1,63.3,58.8,59.0,47.0,35.6,93,59,30,30.21,30.12,3,0,4,0.00
2013-5-29,92.8,72.7,60.1,64.4,60.6,57.2,95,70,37,30.12,29.97,4,0,5,0.00
2013-5-30,99.3,85.4,73.9,66.2,60.5,55.4,74,46,26,30.09,30.03,4,1,4,0.00
2013-5-31,101.7,87.2,77.7,66.2,60.1,53.6,60,41,25,30.12,29.97,4,1,7,0.00
2013-6-1,98.6,84.5,75.2,66.2,62.6,57.2,69,49,28,30.00,29.88,5,1,8,0.00
2013-6-2,94.3,82.4,72.3,68.0,64.0,57.2,80,55,34,29.91,29.77,4,2,7,0.00
2013-6-3,82.4,74.3,69.6,69.8,65.7,46.4,95,75,40,29.85,29.77,3,1,4,0.00
2013-6-4,87.1,71.9,60.6,46.4,27.6,-18.4,41,26,2,30.09,29.85,4,1,6,0.00
2013-6-5,82.8,70.3,62.4,53.6,37.2,17.6,66,31,12,30.18,30.09,4,1,5,0.00
2013-6-6,75.6,66.6,61.9,60.8,54.1,42.8,87,65,34,30.15,30.00,4,-116,4,0.00
2013-6-7,64.4,62.7,60.1,64.4,61.4,59.0,98,94,86,30.00,29.62,2,1,3,0.00
2013-6-8,81.5,68.6,58.6,60.8,58.6,57.2,98,73,45,30.03,29.56,3,1,5,0.00
2013-6-9,89.4,75.3,66.7,60.8,55.6,51.8,75,52,30,30.15,30.03,4,1,5,0.00
2013-6-10,73.2,68.5,64.2,66.2,63.5,59.0,98,84,60,30.15,29.83,1,0,3,0.00
2013-6-11,86.4,75.3,64.4,69.8,62.3,53.6,98,67,41,29.83,29.59,4,1,7,0.00
2013-6-12,88.2,75.6,67.8,59.0,49.8,44.6,63,41,27,29.83,29.68,6,1,6,0.00
2013-6-13,74.7,67.1,58.1,62.6,55.3,44.6,93,68,35,29.83,29.44,4,0,4,0.00
2013-6-14,80.2,64.4,55.9,57.2,51.5,46.4,92,65,34,29.85,29.50,4,1,5,0.00
2013-6-15,90.1,74.5,64.9,53.6,49.8,39.2,65,44,19,29.97,29.85,3,1,5,0.00
2013-6-16,86.4,76.5,69.1,62.6,52.3,44.6,66,43,31,29.97,29.77,4,1,5,0.00
2013-6-17,91.9,78.7,71.2,64.4,61.7,55.4,77,57,33,29.88,29.83,4,1,6,0.00
2013-6-18,89.1,74.7,68.0,66.2,62.7,59.0,86,67,39,29.88,29.80,4,0,4,0.00
2013-6-19,88.5,72.8,63.5,64.4,47.5,-4.0,87,48,3,30.15,29.85,4,0,5,0.00
2013-6-20,89.6,73.6,66.0,53.6,49.3,46.4,53,43,28,30.24,30.15,4,1,5,0.00
2013-6-21,90.1,76.2,66.6,53.6,47.7,41.0,47,37,27,30.27,30.21,3,1,5,0.00
2013-6-22,91.2,76.6,67.3,59.0,50.6,42.8,63,40,31,30.24,30.12,4,1,5,0.00
2013-6-23,95.4,79.8,71.4,71.6,62.2,51.8,80,56,36,30.18,30.03,6,1,6,0.00
2013-6-24,102.7,85.0,75.9,71.6,65.4,55.4,85,55,24,30.06,29.91,4,1,5,0.00
2013-6-25,99.7,84.7,75.9,68.0,62.8,57.2,66,49,29,29.97,29.80,3,1,5,0.00
2013-6-26,94.6,83.0,75.6,69.8,63.9,59.0,70,53,35,29.83,29.77,3,0,4,0.00
2013-6-27,95.0,82.8,75.0,73.4,68.3,62.6,91,63,38,29.80,29.56,4,0,5,0.00
2013-6-28,93.2,80.7,74.8,71.6,66.9,60.8,86,64,38,29.56,29.47,4,1,6,0.00
2013-6-29,94.1,80.7,72.7,71.6,65.7,60.8,84,62,37,29.68,29.47,6,1,6,0.00
2013-6-30,90.9,79.6,75.2,73.4,70.7,66.2,85,74,48,29.91,29.68,4,0,4,0.00
2013-7-1,79.3,76.1,73.8,73.4,71.5,69.8,92,85,77,30.03,29.88,3,0,4,0.00
2013-7-2,91.6,79.2,73.9,73.4,71.4,68.0,90,77,47,30.15,30.03,3,0,3,0.00
2013-7-3,94.5,80.1,74.3,77.0,71.9,68.0,89,76,45,30.24,30.15,4,0,5,0.00
2013-7-4,95.5,84.3,77.2,75.2,71.2,64.4,90,67,38,30.24,30.12,5,1,8,0.00
2013-7-5,100.9,86.9,77.7,73.4,69.1,62.6,83,57,34,30.21,30.06,4,1,6,0.00
2013-7-6,102.0,88.6,79.7,73.4,68.1,60.8,76,53,28,30.12,30.00,3,1,4,0.00
2013-7-7,104.4,90.3,82.9,71.6,67.6,60.8,65,48,31,30.06,29.91,4,1,5,0.00
2013-7-8,99.0,84.2,75.2,68.0,63.4,59.0,71,51,29,30.03,29.94,3,-108,4,0.00
2013-7-9,98.4,85.3,77.7,68.0,64.5,60.8,63,50,33,30.06,29.97,4,-107,6,0.00
2013-7-10,96.1,84.0,76.3,73.4,69.5,62.6,82,62,38,30.00,29.80,5,1,5,0.00
2013-7-11,92.5,84.0,80.1,73.4,64.9,55.4,74,54,37,29.91,29.80,3,0,4,0.00
2013-7-12,80.6,76.0,69.8,69.8,62.1,55.4,92,63,41,30.06,29.88,1,0,2,0.00
2013-7-13,84.9,75.7,69.3,73.4,70.8,68.0,96,84,61,30.24,30.06,2,0,2,0.00
2013-7-14,100.2,85.9,76.6,75.2,69.9,62.6,88,62,33,30.30,30.21,4,1,6,0.00
2013-7-15,102.4,90.2,80.6,71.6,67.2,60.8,70,48,30,30.21,30.09,4,1,4,0.00
2013-7-16,106.5,92.1,83.1,68.0,61.0,55.4,51,37,20,30.18,30.09,4,1,4,0.00
2013-7-17,105.3,92.1,85.8,66.2,62.7,57.2,49,38,25,30.15,30.03,4,0,4,0.00
2013-7-18,109.6,94.5,84.6,69.8,65.6,57.2,57,41,19,30.03,29.94,4,1,4,0.00
2013-7-19,105.8,93.9,86.7,75.2,71.3,66.2,66,49,29,29.94,29.80,4,1,5,0.00
2013-7-20,99.5,89.5,82.8,75.2,67.8,64.4,65,49,33,29.83,29.71,5,1,7,0.00
2013-7-21,99.1,85.6,79.7,71.6,62.7,55.4,68,48,27,29.94,29.83,4,0,5,0.00
2013-7-22,92.1,80.7,77.5,77.0,72.0,66.2,90,74,51,29.94,29.80,2,0,3,0.00
2013-7-23,98.1,82.2,74.7,75.2,71.2,62.6,93,72,36,29.80,29.56,4,1,6,0.00
2013-7-24,91.8,79.8,72.7,68.0,54.1,-99.9,70,44,34,29.91,29.62,4,1,8,0.00
2013-7-25,72.5,68.4,66.4,59.0,50.1,46.4,76,52,42,30.03,29.91,5,0,5,0.00
2013-7-26,94.1,77.0,66.4,64.4,56.9,51.8,75,52,27,30.03,29.97,3,1,4,0.00
2013-7-27,94.5,78.3,72.1,66.2,61.3,51.8,76,58,30,30.03,29.94,4,1,6,0.00
2013-7-28,84.4,76.0,72.7,71.6,66.8,60.8,90,72,48,29.97,29.91,4,1,6,0.00
2013-7-29,93.6,80.1,72.1,69.8,59.9,44.6,90,55,24,30.06,29.91,4,1,4,0.00
2013-7-30,91.8,80.2,71.2,53.6,50.6,46.4,47,36,27,30.15,30.06,4,1,6,0.00
2013-7-31,88.3,78.4,72.0,60.8,53.3,50.0,61,42,31,30.15,30.03,3,1,4,0.00
2013-8-1,77.7,73.0,69.1,69.8,63.9,59.0,93,74,52,30.03,29.83,4,1,5,0.00
2013-8-2,93.0,78.7,69.8,69.8,60.0,50.0,92,57,29,29.88,29.77,3,1,6,0.00
2013-8-3,88.0,76.5,71.8,64.4,57.9,50.0,73,53,39,29.91,29.83,3,0,4,0.00
2013-8-4,91.2,77.7,71.2,60.8,51.6,42.8,66,41,25,29.94,29.83,4,1,6,0.00
2013-8-5,89.6,74.6,65.1,51.8,43.5,35.6,50,34,15,30.03,29.94,4,1,6,0.00
2013-8-6,92.1,79.4,71.6,55.4,50.7,46.4,50,37,23,30.12,30.00,4,1,6,0.00
2013-8-7,88.5,76.0,73.0,68.0,60.6,55.4,79,59,40,30.12,30.03,5,1,6,0.00
2013-8-8,84.9,76.5,71.6,75.2,70.1,68.0,89,80,64,30.06,29.97,4,1,4,0.00
2013-8-9,88.7,82.1,76.3,73.4,71.8,69.8,84,70,53,30.00,29.80,2,1,6,0.00
2013-8-10,93.7,81.3,73.6,71.6,58.7,48.2,76,48,29,30.03,29.83,4,1,4,0.00
2013-8-11,91.9,77.4,70.5,62.6,50.5,46.4,64,39,27,30.09,30.00,3,0,4,0.00
2013-8-12,92.7,78.5,70.7,69.8,65.1,59.0,90,65,37,30.03,29.91,4,0,5,0.00
2013-8-13,86.9,75.7,69.8,71.6,67.6,60.8,91,76,44,29.91,29.68,3,0,3,0.00
2013-8-14,86.5,72.4,63.9,64.4,47.5,42.8,76,42,28,30.03,29.74,4,1,6,0.00
2013-8-15,89.8,73.0,63.9,51.8,43.7,35.6,49,36,18,30.12,30.03,3,1,4,0.00
2013-8-16,90.7,75.8,68.0,53.6,48.2,42.8,56,39,21,30.18,30.09,4,1,6,0.00
2013-8-17,92.7,77.3,69.1,55.4,50.1,46.4,50,39,24,30.24,30.18,3,0,4,0.00
2013-8-18,77.2,73.4,71.4,59.0,53.3,50.0,64,49,43,30.24,30.21,1,0,1,0.00
2013-8-23,91.4,80.8,74.1,64.4,51.9,46.4,69,38,22,30.06,29.91,4,0,4,0.00
2013-8-24,94.1,76.5,67.1,55.4,46.8,-7.6,54,37,2,30.30,30.06,4,0,4,0.00
2013-8-25,93.6,77.2,68.2,57.2,51.5,42.8,63,43,19,30.36,30.21,4,1,6,0.00
2013-8-26,90.0,76.7,69.4,60.8,54.5,48.2,52,46,36,30.21,29.91,3,1,5,0.00
2013-8-27,98.1,85.6,74.5,66.2,63.2,59.0,74,48,31,29.88,29.80,3,0,5,0.00
2013-8-28,90.1,80.1,75.9,71.6,66.4,60.8,79,63,43,29.85,29.83,2,0,3,0.00
2013-8-29,90.1,77.5,72.9,69.8,65.2,59.0,85,67,39,30.00,29.85,2,0,3,0.00
2013-8-30,95.4,78.8,71.2,69.8,64.5,59.0,79,63,35,30.00,29.83,3,0,4,0.00
2013-8-31,93.7,81.1,74.1,71.6,69.0,66.2,81,67,43,29.85,29.77,4,1,6,0.00
2013-9-1,89.1,80.4,75.9,73.4,70.7,66.2,85,72,51,29.83,29.77,3,0,4,0.00
2013-9-2,85.3,79.8,76.8,75.2,72.5,66.2,85,77,59,29.80,29.71,2,0,2,0.00
2013-9-3,92.7,78.9,73.2,73.4,62.2,48.2,92,61,28,29.88,29.68,0,0,0,0.00
2013-9-4,93.2,76.8,67.8,55.4,52.2,48.2,62,43,26,29.97,29.85,3,-79,3,0.00
2013-9-5,89.2,75.8,68.2,55.4,43.6,-16.6,58,37,2,30.12,29.91,3,0,6,0.00
2013-9-6,83.5,69.6,60.3,42.8,32.6,-16.6,41,30,2,30.24,30.09,3,0,4,0.00
2013-9-7,88.7,72.0,62.1,51.8,44.6,39.2,54,38,18,30.12,29.88,4,0,4,0.00
2013-9-8,91.6,76.9,67.8,60.8,50.0,35.6,56,40,21,30.03,29.80,3,1,5,0.00
2013-9-9,84.4,69.5,61.9,57.2,44.0,35.6,64,40,30,30.24,30.03,4,0,6,0.00
2013-9-10,93.7,79.3,69.8,71.6,65.8,57.2,81,64,41,30.15,30.03,4,1,6,0.00
2013-9-11,103.3,87.1,77.2,73.4,70.4,64.4,82,59,34,30.09,29.94,4,0,6,0.00
2013-9-12,92.8,80.1,71.6,73.4,69.3,64.4,95,70,40,29.97,29.68,4,1,8,0.00
2013-9-13,86.7,72.2,62.4,68.0,56.6,42.8,87,61,33,29.83,29.62,3,1,5,0.00
2013-9-14,73.8,62.9,56.8,44.6,41.9,39.2,53,45,35,30.09,29.83,4,1,6,0.00
2013-9-15,83.8,65.6,53.8,48.2,42.0,35.6,59,43,20,30.18,30.06,4,0,4,0.00
2013-9-16,83.1,67.6,61.2,57.2,50.2,44.6,79,54,32,30.21,30.00,3,0,3,0.00
2013-9-17,79.3,61.9,51.4,42.8,33.6,-0.4,52,37,5,30.39,30.21,3,0,3,0.00
2013-9-18,82.8,64.4,55.6,48.2,40.3,35.6,60,42,19,30.33,30.15,3,0,4,0.00
2013-9-19,88.2,68.9,58.1,53.6,46.5,41.0,63,47,20,30.21,30.03,4,0,4,0.00
2013-9-20,88.5,71.3,62.2,57.2,53.6,48.2,75,55,29,30.09,29.97,4,0,6,0.00
2013-9-21,84.9,71.0,63.7,68.0,60.8,55.4,90,71,42,30.00,29.65,6,1,9,0.00
2013-9-22,79.3,68.0,60.4,68.0,50.3,37.4,93,58,27,29.88,29.65,5,1,6,0.00
2013-9-23,77.4,61.0,53.1,42.8,37.1,33.8,50,42,24,30.03,29.91,3,1,5,0.00
2013-9-25,66.4,66.4,66.4,50.0,49.1,48.2,54,54,53,29.91,29.91,0,0,0,0.00
2013-9-26,72.1,66.1,61.5,55.4,51.7,48.2,75,59,48,30.09,29.91,2,0,2,0.00
2013-9-27,77.2,67.6,63.0,51.8,48.9,46.4,66,51,40,30.24,30.09,1,0,2,0.00
2013-9-28,82.6,67.8,60.1,50.0,47.7,44.6,65,49,28,30.30,30.21,2,0,2,0.00
2013-9-29,87.4,69.8,61.7,57.2,50.5,44.6,81,53,27,30.21,30.06,3,0,4,0.00
2013-9-30,80.6,72.0,60.8,53.6,49.4,44.6,76,46,32,30.06,29.97,2,0,2,0.00
2013-10-1,90.3,76.2,67.3,53.6,51.0,50.0,55,42,27,30.00,29.88,3,1,3,0.00
2013-10-2,94.1,76.3,66.6,57.2,53.8,50.0,60,46,29,30.00,29.88,2,0,4,0.00
2013-10-3,84.7,74.6,68.7,55.4,51.1,48.2,53,44,30,30.12,30.00,3,-220,4,0.00
2013-10-4,93.6,77.0,68.5,64.4,58.4,50.0,76,54,32,30.06,29.94,3,-412,3,0.00
2013-10-5,88.3,72.3,66.4,64.4,61.5,57.2,88,70,39,30.09,30.00,3,0,3,0.00
2013-10-6,71.1,68.8,66.7,68.0,65.3,62.6,91,88,82,30.09,30.03,2,0,2,0.00
2013-10-7,80.2,69.2,63.0,69.8,61.0,46.4,92,75,54,29.97,29.77,4,1,6,0.00
2013-10-8,67.1,60.2,57.0,46.4,42.0,41.0,54,50,42,30.21,29.97,3,1,4,0.00